createdAt,value
2022-08-19T00:01:38.111Z,96834.28
2022-08-19T00:04:06.532Z,96842.84
2022-08-19T00:06:33.069Z,96841.16
2022-08-19T00:09:01.222Z,96846.28
2022-08-19T00:11:28.558Z,96845.44
2022-08-19T00:13:56.348Z,96858.28
2022-08-19T00:16:26.488Z,96866.88
2022-08-19T00:18:54.912Z,96863.44
2022-08-19T00:21:21.680Z,96867.75
2022-08-19T00:23:48.498Z,96866.00
2022-08-19T00:26:15.054Z,96866.88
2022-08-19T00:28:42.148Z,96861.72
2022-08-19T00:31:08.896Z,96854.00
2022-08-19T00:33:35.644Z,96847.16
2022-08-19T00:36:05.502Z,96853.16
2022-08-19T00:38:35.282Z,96860.84
2022-08-19T00:41:05.947Z,96867.75
2022-08-19T00:43:32.554Z,96863.44
2022-08-19T00:45:59.647Z,96859.16
2022-08-19T00:48:26.223Z,96851.44
2022-08-19T00:50:54.167Z,96851.44
2022-08-19T00:53:22.826Z,96853.16
2022-08-19T00:55:51.432Z,96850.56
2022-08-19T00:58:20.280Z,96837.69
2022-08-19T01:00:47.259Z,96866.00
2022-08-19T01:03:17.112Z,96871.16
2022-08-19T01:05:45.975Z,96872.03
2022-08-19T01:08:12.560Z,96860.00
2022-08-19T01:10:43.127Z,96865.16
2022-08-19T01:13:09.745Z,96870.31
2022-08-19T01:15:57.893Z,96868.59
2022-08-19T01:18:24.479Z,96857.44
2022-08-19T01:20:51.125Z,96863.44
2022-08-19T01:23:19.331Z,96871.16
2022-08-19T01:25:50.915Z,96877.16
2022-08-19T01:28:33.696Z,96878.03
2022-08-19T01:31:01.071Z,96763.72
2022-08-19T01:33:34.651Z,96887.47
2022-08-19T01:36:06.240Z,96894.31
2022-08-19T01:38:37.279Z,96892.59
2022-08-19T01:41:12.165Z,96899.47
2022-08-19T01:43:38.804Z,96908.06
2022-08-19T01:46:25.705Z,96918.34
2022-08-19T01:48:52.268Z,96912.31
2022-08-19T01:51:18.832Z,96918.34
2022-08-19T01:53:48.445Z,96915.78
2022-08-19T01:56:15.429Z,96920.06
2022-08-19T01:58:48.644Z,96920.06
2022-08-19T02:01:15.262Z,96920.06
2022-08-19T02:03:42.360Z,96922.63
2022-08-19T02:06:08.957Z,96916.63
2022-08-19T02:08:37.424Z,96911.47
2022-08-19T02:11:04.297Z,96924.34
2022-08-19T02:13:31.740Z,96936.34
2022-08-19T02:15:58.789Z,96942.38
2022-08-19T02:18:28.067Z,96938.03
2022-08-19T02:20:54.805Z,96947.53
2022-08-19T02:23:21.356Z,96935.44
2022-08-19T02:25:48.871Z,96940.63
2022-08-19T02:28:18.813Z,96934.66
2022-08-19T02:30:45.847Z,96919.22
2022-08-19T02:33:12.413Z,96913.19
2022-08-19T02:35:43.211Z,96911.50
2022-08-19T02:38:27.690Z,96919.22
2022-08-19T02:40:59.745Z,96916.63
2022-08-19T02:43:26.916Z,96919.22
2022-08-19T02:45:53.757Z,96881.44
2022-08-19T02:48:21.570Z,96877.16
2022-08-19T02:50:53.299Z,96885.75
2022-08-19T02:53:20.293Z,96884.03
2022-08-19T02:55:47.288Z,96881.44
2022-08-19T02:58:14.588Z,96881.44
2022-08-19T03:00:46.580Z,96887.47
2022-08-19T03:03:13.239Z,96899.47
2022-08-19T03:05:55.761Z,96887.44
2022-08-19T03:08:23.657Z,96894.31
2022-08-19T03:10:50.202Z,96886.59
2022-08-19T03:13:18.132Z,96899.47
2022-08-19T03:15:45.906Z,96890.03
2022-08-19T03:18:12.480Z,96896.88
2022-08-19T03:20:50.178Z,96893.47
2022-08-19T03:23:17.361Z,96897.75
2022-08-19T03:25:46.211Z,96896.03
2022-08-19T03:28:13.350Z,96902.03
2022-08-19T03:30:43.095Z,96902.91
2022-08-19T03:33:10.839Z,96902.88
2022-08-19T03:35:46.064Z,96896.88
2022-08-19T03:38:12.608Z,96890.03
2022-08-19T03:40:39.171Z,96885.75
2022-08-19T03:43:06.973Z,96886.59
2022-08-19T03:45:33.551Z,96889.16
2022-08-19T03:48:00.153Z,96884.88
2022-08-19T03:50:26.666Z,96893.47
2022-08-19T03:52:53.672Z,96890.91
2022-08-19T03:55:20.448Z,96896.88
2022-08-19T03:57:48.637Z,96894.31
2022-08-19T04:00:16.253Z,96902.91
2022-08-19T04:02:58.600Z,96884.00
2022-08-19T04:05:30.608Z,96890.00
2022-08-19T04:08:00.094Z,96905.47
2022-08-19T04:10:28.599Z,96902.03
2022-08-19T04:12:55.273Z,96891.72
2022-08-19T04:15:21.859Z,96893.47
2022-08-19T04:17:48.608Z,96899.47
2022-08-19T04:20:15.337Z,96905.47
2022-08-19T04:22:42.134Z,96916.63
2022-08-19T04:25:09.102Z,96930.34
2022-08-19T04:27:35.691Z,96938.06
2022-08-19T04:30:02.658Z,96932.91
2022-08-19T04:32:29.326Z,96932.06
2022-08-19T04:35:02.242Z,96932.06
2022-08-19T04:37:44.362Z,96944.06
2022-08-19T04:40:29.780Z,96950.94
2022-08-19T04:42:57.472Z,96943.22
2022-08-19T04:45:24.049Z,96939.81
2022-08-19T04:47:58.155Z,96927.75
2022-08-19T04:50:27.041Z,96940.63
2022-08-19T04:52:54.257Z,96950.09
2022-08-19T04:55:21.035Z,96957.81
2022-08-19T04:57:47.588Z,96951.78
2022-08-19T05:00:14.230Z,96952.66
2022-08-19T05:02:40.973Z,96950.09
2022-08-19T05:05:07.841Z,96950.94
2022-08-19T05:07:34.891Z,96952.66
2022-08-19T05:10:01.545Z,96952.66
2022-08-19T05:12:29.834Z,96950.94
2022-08-19T05:14:57.874Z,96951.78
2022-08-19T05:17:28.003Z,96960.38
2022-08-19T05:20:14.712Z,96960.41
2022-08-19T05:22:42.199Z,96966.38
2022-08-19T05:25:13.257Z,96961.22
2022-08-19T05:27:40.603Z,96964.69
2022-08-19T05:30:07.652Z,96966.38
2022-08-19T05:32:34.187Z,96965.56
2022-08-19T05:35:00.744Z,96970.69
2022-08-19T05:37:28.583Z,96974.09
2022-08-19T05:39:55.762Z,96972.41
2022-08-19T05:42:23.748Z,96976.69
2022-08-19T05:44:50.572Z,96968.13
2022-08-19T05:47:17.165Z,96973.25
2022-08-19T05:49:43.742Z,96969.81
2022-08-19T05:52:12.968Z,96974.97
2022-08-19T05:54:42.380Z,96976.66
2022-08-19T05:57:09.556Z,96968.94
2022-08-19T05:59:39.326Z,96965.53
2022-08-19T06:02:06.314Z,96965.53
2022-08-19T06:04:32.967Z,96957.81
2022-08-19T06:06:59.556Z,96945.75
2022-08-19T06:09:26.283Z,96962.09
2022-08-19T06:11:56.110Z,96959.53
2022-08-19T06:14:27.753Z,96958.66
2022-08-19T06:16:54.759Z,96958.66
2022-08-19T06:19:22.827Z,96961.25
2022-08-19T06:21:49.799Z,96958.66
2022-08-19T06:24:18.063Z,96952.69
2022-08-19T06:29:23.810Z,96956.97
2022-08-19T06:31:52.971Z,96962.09
2022-08-19T06:34:19.935Z,96970.69
2022-08-19T06:36:48.399Z,96977.53
2022-08-19T06:39:19.816Z,96970.69
2022-08-19T06:41:51.805Z,96982.69
2022-08-19T06:44:21.795Z,96975.81
2022-08-19T06:46:53.552Z,96984.41
2022-08-19T06:49:21.632Z,96988.69
2022-08-19T06:51:51.904Z,96988.69
2022-08-19T06:54:19.666Z,96987.84
2022-08-19T06:56:47.092Z,96982.69
2022-08-19T06:59:18.723Z,96988.69
2022-08-19T07:01:49.887Z,96986.97
2022-08-19T07:04:17.848Z,96986.97
2022-08-19T07:06:45.739Z,96974.09
2022-08-19T07:09:21.746Z,96968.94
2022-08-19T07:11:50.212Z,96967.25
2022-08-19T07:14:19.594Z,96966.34
2022-08-19T07:16:48.180Z,96968.94
2022-08-19T07:19:16.108Z,96969.81
2022-08-19T07:21:45.544Z,96974.97
2022-08-19T07:24:13.199Z,96976.66
2022-08-19T07:26:42.194Z,96978.41
2022-08-19T07:29:08.929Z,96975.84
2022-08-19T07:31:37.551Z,96974.97
2022-08-19T07:34:07.860Z,96977.53
2022-08-19T07:36:36.143Z,96865.69
2022-08-19T07:39:06.131Z,96978.41
2022-08-19T07:41:33.059Z,96979.22
2022-08-19T07:44:04.578Z,96989.53
2022-08-19T07:46:35.156Z,96986.13
2022-08-19T07:49:01.870Z,96991.28
2022-08-19T07:51:36.543Z,96985.25
2022-08-19T07:54:03.500Z,96980.13
2022-08-19T07:56:30.038Z,96983.56
2022-08-19T08:01:28.801Z,96962.03
2022-08-19T08:04:15.187Z,96972.41
2022-08-19T08:07:00.365Z,96972.41
2022-08-19T08:09:32.805Z,96968.94
2022-08-19T08:12:33.130Z,96967.25
2022-08-19T08:14:58.414Z,96964.69
2022-08-19T08:17:40.975Z,96956.09
2022-08-19T08:20:14.383Z,96962.97
2022-08-19T08:23:03.232Z,96971.53
2022-08-19T08:25:32.361Z,96976.66
2022-08-19T08:28:01.311Z,96975.84
2022-08-19T08:30:31.162Z,96971.53
2022-08-19T08:32:59.774Z,96969.81
2022-08-19T08:35:26.361Z,96962.09
2022-08-19T08:37:54.586Z,96966.38
2022-08-19T08:41:04.520Z,96980.13
2022-08-19T08:43:35.911Z,96957.81
2022-08-19T08:46:04.630Z,96946.66
2022-08-19T08:48:40.085Z,96959.53
2022-08-19T08:51:11.005Z,96955.25
2022-08-19T08:53:41.393Z,96949.22
2022-08-19T08:56:08.456Z,96944.94
2022-08-19T08:58:59.123Z,96948.34
2022-08-19T09:01:30.334Z,96947.47
2022-08-19T09:03:57.347Z,96964.66
2022-08-19T09:06:47.820Z,96965.53
2022-08-19T09:09:33.042Z,96968.94
2022-08-19T09:12:26.818Z,96959.53
2022-08-19T09:15:04.417Z,96963.75
2022-08-19T09:17:32.093Z,96968.13
2022-08-19T09:20:09.050Z,96968.13
2022-08-19T09:22:40.278Z,96974.09
2022-08-19T09:25:08.261Z,96968.94
2022-08-19T09:27:53.902Z,96970.69
2022-08-19T09:30:26.232Z,96970.69
2022-08-19T09:32:56.172Z,96977.56
2022-08-19T09:35:26.066Z,96976.69
2022-08-19T09:37:57.403Z,96976.69
2022-08-19T09:40:27.034Z,96974.97
2022-08-19T09:42:58.095Z,96974.97
2022-08-19T09:45:24.918Z,96971.53
2022-08-19T09:47:54.362Z,96974.97
2022-08-19T09:50:21.859Z,96973.28
2022-08-19T09:52:57.011Z,96967.25
2022-08-19T09:55:31.876Z,96970.69
2022-08-19T09:58:02.307Z,96973.28
2022-08-19T10:00:29.101Z,96968.97
2022-08-19T10:02:55.696Z,96969.81
2022-08-19T10:05:42.438Z,96983.56
2022-08-19T10:08:13.578Z,96981.00
2022-08-19T10:10:47.185Z,96976.69
2022-08-19T10:13:15.761Z,96972.41
2022-08-19T10:15:47.285Z,96987.03
2022-08-19T10:18:14.422Z,96981.00
2022-08-19T10:20:42.748Z,96983.56
2022-08-19T10:23:10.232Z,96979.25
2022-08-19T10:25:36.954Z,96977.56
2022-08-19T10:28:05.287Z,96983.56
2022-08-19T10:30:37.264Z,96980.13
2022-08-19T10:33:08.541Z,96979.25
2022-08-19T10:35:56.360Z,96977.56
2022-08-19T10:38:31.359Z,96978.41
2022-08-19T10:40:58.999Z,96978.41
2022-08-19T10:43:25.957Z,96972.41
2022-08-19T10:46:00.217Z,96979.25
2022-08-19T10:48:26.974Z,96976.66
2022-08-19T10:51:22.826Z,96977.53
2022-08-19T10:53:50.971Z,96992.97
2022-08-19T10:56:36.877Z,96968.94
2022-08-19T10:59:04.272Z,96973.25
2022-08-19T11:01:31.886Z,96968.09
2022-08-19T11:03:58.541Z,96968.94
2022-08-19T11:06:26.177Z,96956.91
2022-08-19T11:08:54.000Z,96969.81
2022-08-19T11:11:21.031Z,96956.91
2022-08-19T11:13:48.256Z,96962.09
2022-08-19T11:16:17.216Z,96967.25
2022-08-19T11:18:51.265Z,96957.81
2022-08-19T11:21:24.709Z,96950.06
2022-08-19T11:23:52.763Z,96969.78
2022-08-19T11:26:19.673Z,96968.09
2022-08-19T11:28:46.373Z,96975.81
2022-08-19T11:31:14.055Z,96981.78
2022-08-19T11:33:40.879Z,96983.53
2022-08-19T11:36:08.369Z,96984.38
2022-08-19T11:38:36.526Z,96972.34
2022-08-19T11:41:05.167Z,96962.06
2022-08-19T11:43:37.141Z,96974.94
2022-08-19T11:46:08.146Z,96978.38
2022-08-19T11:48:35.266Z,96970.66
2022-08-19T11:51:06.308Z,96963.72
2022-08-19T11:53:33.059Z,96964.63
2022-08-19T11:55:59.574Z,96979.22
2022-08-19T11:58:26.096Z,96972.38
2022-08-19T12:00:52.874Z,96966.34
2022-08-19T12:03:20.501Z,96968.91
2022-08-19T12:05:47.264Z,96969.78
2022-08-19T12:08:13.928Z,96967.22
2022-08-19T12:10:41.877Z,96962.94
2022-08-19T12:13:08.555Z,96962.06
2022-08-19T12:15:38.834Z,96954.31
2022-08-19T12:18:05.675Z,96972.38
2022-08-19T12:20:32.255Z,96966.31
2022-08-19T12:23:02.105Z,96981.78
2022-08-19T12:25:28.628Z,96982.66
2022-08-19T12:27:57.458Z,96989.50
2022-08-19T12:30:24.390Z,96982.66
2022-08-19T12:32:52.172Z,96985.22
2022-08-19T12:35:20.921Z,96986.94
2022-08-19T12:37:57.032Z,96979.22
2022-08-19T12:40:24.075Z,96989.53
2022-08-19T12:42:53.327Z,96988.69
2022-08-19T12:45:20.127Z,97000.69
2022-08-19T12:47:47.729Z,96994.66
2022-08-19T12:50:16.056Z,97004.97
2022-08-19T12:52:43.414Z,96987.81
2022-08-19T12:55:10.540Z,96991.28
2022-08-19T12:57:37.183Z,97003.25
2022-08-19T13:00:14.337Z,96997.22
2022-08-19T13:02:42.789Z,97008.41
2022-08-19T13:05:10.147Z,97010.13
2022-08-19T13:07:38.393Z,97007.56
2022-08-19T13:10:06.441Z,97010.13
2022-08-19T13:12:33.099Z,97012.69
2022-08-19T13:14:59.661Z,97010.13
2022-08-19T13:17:27.031Z,97011.00
2022-08-19T13:19:53.613Z,97009.28
2022-08-19T13:22:20.159Z,97014.44
2022-08-19T13:24:47.571Z,97003.25
2022-08-19T13:27:14.343Z,96998.97
2022-08-19T13:30:00.730Z,97014.44
2022-08-19T13:32:46.128Z,97016.13
2022-08-19T13:35:16.640Z,97027.31
2022-08-19T13:37:43.718Z,97026.44
2022-08-19T13:40:13.807Z,97021.28
2022-08-19T13:42:41.098Z,97019.56
2022-08-19T13:45:07.901Z,97020.41
2022-08-19T13:47:43.423Z,97022.13
2022-08-19T13:50:14.131Z,97019.56
2022-08-19T13:52:40.855Z,96980.00
2022-08-19T13:55:07.802Z,97008.41
2022-08-19T13:57:34.373Z,96993.81
2022-08-19T14:00:00.989Z,96998.09
2022-08-19T14:02:27.584Z,96991.25
2022-08-19T14:04:54.224Z,96983.53
2022-08-19T14:07:21.211Z,96980.09
2022-08-19T14:09:47.759Z,96983.53
2022-08-19T14:12:19.100Z,96980.09
2022-08-19T14:14:55.456Z,96985.22
2022-08-19T14:17:22.496Z,96979.22
2022-08-19T14:19:49.067Z,96908.63
2022-08-19T14:22:15.633Z,96993.81
2022-08-19T14:24:49.179Z,96993.81
2022-08-19T14:27:15.799Z,96985.22
2022-08-19T14:29:42.335Z,96986.09
2022-08-19T14:32:11.544Z,96980.97
2022-08-19T14:34:46.777Z,96980.09
2022-08-19T14:37:17.031Z,96983.53
2022-08-19T14:39:43.715Z,96980.94
2022-08-19T14:42:11.475Z,96980.09
2022-08-19T14:44:38.285Z,96986.09
2022-08-19T14:47:05.060Z,96976.66
2022-08-19T14:49:34.829Z,96975.81
2022-08-19T14:52:08.332Z,96958.59
2022-08-19T14:54:34.892Z,96967.19
2022-08-19T14:57:01.445Z,96984.34
2022-08-19T14:59:28.036Z,96986.94
2022-08-19T15:01:54.685Z,96991.25
2022-08-19T15:04:21.300Z,96998.97
2022-08-19T15:06:47.863Z,97005.81
2022-08-19T15:09:14.380Z,97010.09
2022-08-19T15:11:40.949Z,97015.25
2022-08-19T15:14:07.839Z,97006.69
2022-08-19T15:16:34.602Z,96992.06
2022-08-19T15:19:01.214Z,96998.06
2022-08-19T15:21:28.352Z,97010.97
2022-08-19T15:23:56.400Z,97015.25
2022-08-19T15:26:22.994Z,97014.41
2022-08-19T15:28:49.752Z,97018.69
2022-08-19T15:31:25.552Z,97004.09
2022-08-19T15:33:58.274Z,97021.25
2022-08-19T15:36:26.172Z,97010.09
2022-08-19T15:38:53.254Z,97010.09
2022-08-19T15:41:24.819Z,97010.09
2022-08-19T15:43:56.105Z,97004.09
2022-08-19T15:46:27.172Z,97004.06
2022-08-19T15:48:57.277Z,97016.09
2022-08-19T15:51:27.459Z,97014.41
2022-08-19T15:53:55.150Z,97023.81
2022-08-19T15:56:25.517Z,97021.25
2022-08-19T15:59:12.122Z,97017.78
2022-08-19T16:01:57.206Z,97016.09
2022-08-19T16:04:42.044Z,97013.53
2022-08-19T16:07:10.267Z,97015.22
2022-08-19T16:09:36.873Z,97010.09
2022-08-19T16:12:04.890Z,97006.69
2022-08-19T16:14:33.965Z,97000.66
2022-08-19T16:17:00.509Z,97011.81
2022-08-19T16:19:27.370Z,97009.25
2022-08-19T16:21:54.965Z,97017.81
2022-08-19T16:24:23.236Z,97016.97
2022-08-19T16:26:49.899Z,97008.34
2022-08-19T16:29:22.066Z,97016.97
2022-08-19T16:32:04.921Z,97023.81
2022-08-19T16:34:31.668Z,97015.19
2022-08-19T16:36:58.236Z,97034.97
2022-08-19T16:39:24.777Z,97047.84
2022-08-19T16:41:51.568Z,97025.47
2022-08-19T16:44:19.451Z,97044.41
2022-08-19T16:46:47.104Z,97021.16
2022-08-19T16:49:52.934Z,97054.72
2022-08-19T16:52:12.310Z,97030.59
2022-08-19T16:54:41.637Z,97039.25
2022-08-19T16:57:11.844Z,97038.38
2022-08-19T16:59:39.497Z,97036.69
2022-08-19T17:02:14.757Z,97034.13
2022-08-19T17:04:41.665Z,97020.34
2022-08-19T17:07:09.775Z,97041.84
2022-08-19T17:09:36.703Z,97041.84
2022-08-19T17:12:04.811Z,97046.09
2022-08-19T17:14:31.384Z,97048.69
2022-08-19T17:16:57.908Z,97058.16
2022-08-19T17:19:24.436Z,97051.25
2022-08-19T17:21:51.237Z,97059.84
2022-08-19T17:24:17.803Z,97066.69
2022-08-19T17:26:44.569Z,97077.84
2022-08-19T17:29:11.177Z,97071.84
2022-08-19T17:31:38.171Z,97078.72
2022-08-19T17:34:04.694Z,97069.22
2022-08-19T17:36:32.387Z,97075.28
2022-08-19T17:39:00.567Z,97081.28
2022-08-19T17:41:27.905Z,97083.00
2022-08-19T17:43:54.660Z,97075.25
2022-08-19T17:46:21.376Z,97085.56
2022-08-19T17:48:52.241Z,97086.44
2022-08-19T17:51:23.329Z,97091.59
2022-08-19T17:53:51.197Z,97101.91
2022-08-19T17:56:18.091Z,97109.59
2022-08-19T17:58:45.036Z,97108.75
2022-08-19T18:01:24.645Z,97113.91
2022-08-19T18:03:52.805Z,97106.19
2022-08-19T18:06:19.345Z,97116.47
2022-08-19T18:08:46.676Z,97114.78
2022-08-19T18:11:13.410Z,97114.78
2022-08-19T18:13:40.724Z,97124.19
2022-08-19T18:16:12.225Z,97128.47
2022-08-19T18:18:39.976Z,97127.66
2022-08-19T18:21:06.690Z,97101.81
2022-08-19T18:23:44.429Z,97131.91
2022-08-19T18:26:12.286Z,97132.78
2022-08-19T18:28:39.859Z,97133.63
2022-08-19T18:31:16.782Z,97133.63
2022-08-19T18:33:44.589Z,97149.94
2022-08-19T18:36:11.326Z,97143.06
2022-08-19T18:38:56.116Z,97140.50
2022-08-19T18:41:41.065Z,97155.06
2022-08-19T18:44:26.005Z,97156.78
2022-08-19T18:47:13.927Z,97149.88
2022-08-19T18:49:40.567Z,97173.94
2022-08-19T18:52:07.206Z,97185.06
2022-08-19T18:54:34.344Z,97187.66
2022-08-19T18:57:01.080Z,97180.81
2022-08-19T18:59:30.199Z,97178.16
2022-08-19T19:01:57.709Z,97169.56
2022-08-19T19:04:27.185Z,97184.25
2022-08-19T19:06:53.707Z,97190.22
2022-08-19T19:09:21.713Z,97153.97
2022-08-19T19:11:59.391Z,97186.81
2022-08-19T19:14:48.645Z,97191.97
2022-08-19T19:17:16.218Z,97199.69
2022-08-19T19:19:43.902Z,97203.09
2022-08-19T19:22:13.751Z,97197.09
2022-08-19T19:24:40.737Z,97187.56
2022-08-19T19:27:08.397Z,97206.53
2022-08-19T19:29:38.224Z,97197.94
2022-08-19T19:32:09.148Z,97205.66
2022-08-19T19:34:37.939Z,97176.38
2022-08-19T19:37:04.553Z,97212.53
2022-08-19T19:39:45.865Z,97203.94
2022-08-19T19:42:20.092Z,97217.69
2022-08-19T19:44:48.761Z,97215.94
2022-08-19T19:47:15.774Z,97211.63
2022-08-19T19:50:03.977Z,97219.41
2022-08-19T19:52:28.989Z,97220.25
2022-08-19T19:54:56.707Z,97222.81
2022-08-19T19:57:26.830Z,97227.97
2022-08-19T19:59:54.191Z,97226.22
2022-08-19T20:02:22.026Z,97231.38
2022-08-19T20:04:48.950Z,97234.81
2022-08-19T20:07:15.552Z,97242.53
2022-08-19T20:09:58.931Z,97245.13
2022-08-19T20:12:26.523Z,97251.97
2022-08-19T20:14:53.078Z,97257.97
2022-08-19T20:17:20.694Z,97253.66
2022-08-19T20:19:47.844Z,97262.25
2022-08-19T20:22:14.544Z,97269.16
2022-08-19T20:24:42.611Z,97263.13
2022-08-19T20:27:10.227Z,97258.84
2022-08-19T20:29:44.238Z,97265.69
2022-08-19T20:32:12.390Z,97265.69
2022-08-19T20:34:39.869Z,97262.28
2022-08-19T20:37:09.174Z,97266.56
2022-08-19T20:39:36.274Z,97271.72
2022-08-19T20:42:03.164Z,97277.72
2022-08-19T20:44:29.696Z,97279.44
2022-08-19T20:47:00.455Z,97282.03
2022-08-19T20:49:29.638Z,97279.44
2022-08-19T20:51:56.491Z,97282.84
2022-08-19T20:54:24.151Z,97283.75
2022-08-19T20:56:51.093Z,97289.75
2022-08-19T20:59:17.723Z,97291.47
2022-08-19T21:01:44.248Z,97293.16
2022-08-19T21:04:10.806Z,97287.16
2022-08-19T21:06:38.568Z,97288.84
2022-08-19T21:09:08.836Z,97279.41
2022-08-19T21:11:36.103Z,97293.13
2022-08-19T21:14:02.864Z,97297.44
2022-08-19T21:16:29.416Z,97300.84
2022-08-19T21:18:55.936Z,97307.72
2022-08-19T21:21:22.504Z,97299.97
2022-08-19T21:23:49.645Z,97313.69
2022-08-19T21:26:16.315Z,97315.41
2022-08-19T21:28:42.864Z,97305.16
2022-08-19T21:31:10.574Z,97319.72
2022-08-19T21:33:37.663Z,97311.13
2022-08-19T21:36:04.512Z,97211.00
2022-08-19T21:38:31.317Z,97314.56
2022-08-19T21:40:57.903Z,97320.59
2022-08-19T21:43:24.639Z,97319.72
2022-08-19T21:45:51.188Z,97324.88
2022-08-19T21:48:17.911Z,97336.88
2022-08-19T21:50:46.002Z,97341.16
2022-08-19T21:53:17.676Z,97350.59
2022-08-19T21:55:44.835Z,97351.47
2022-08-19T21:58:11.786Z,97349.75
2022-08-19T22:00:38.627Z,97344.59
2022-08-19T22:03:05.352Z,97342.03
2022-08-19T22:05:33.310Z,97338.56
2022-08-19T22:08:00.264Z,97350.63
2022-08-19T22:10:27.917Z,97348.03
2022-08-19T22:12:56.173Z,97348.91
2022-08-19T22:15:23.287Z,97341.19
2022-08-19T22:17:50.125Z,97342.91
2022-08-19T22:20:19.056Z,97334.31
2022-08-19T22:22:50.672Z,97334.31
2022-08-19T22:25:32.257Z,97345.47
2022-08-19T22:28:01.851Z,97331.72
2022-08-19T22:30:33.322Z,97332.56
2022-08-19T22:33:02.211Z,97341.19
2022-08-19T22:35:31.489Z,97330.88
2022-08-19T22:38:02.209Z,97336.06
2022-08-19T22:40:29.700Z,97330.91
2022-08-19T22:43:00.617Z,97329.19
2022-08-19T22:45:27.434Z,97341.19
2022-08-19T22:47:54.240Z,97339.44
2022-08-19T22:50:20.928Z,97338.63
2022-08-19T22:52:51.994Z,97322.28
2022-08-19T22:55:18.836Z,97330.03
2022-08-19T22:57:45.366Z,97331.72
2022-08-19T23:00:13.452Z,97326.59
2022-08-19T23:02:52.380Z,97328.34
2022-08-19T23:05:21.928Z,97317.09
2022-08-19T23:07:52.825Z,97330.03
2022-08-19T23:10:26.891Z,97326.59
2022-08-19T23:12:54.517Z,97333.47
2022-08-19T23:15:24.259Z,97330.91
2022-08-19T23:17:54.447Z,97336.03
2022-08-19T23:20:21.790Z,97333.47
2022-08-19T23:22:49.643Z,97342.03
2022-08-19T23:25:19.071Z,97331.69
2022-08-19T23:28:04.599Z,97341.16
2022-08-19T23:30:31.908Z,97337.75
2022-08-19T23:33:00.984Z,97340.28
2022-08-19T23:35:31.760Z,97348.03
2022-08-19T23:37:58.587Z,97333.41
2022-08-19T23:40:25.128Z,97340.31
2022-08-19T23:42:51.737Z,97341.16
2022-08-19T23:45:23.586Z,97334.28
2022-08-19T23:47:51.340Z,97335.16
2022-08-19T23:50:20.450Z,97333.44
2022-08-19T23:52:51.668Z,97324.84
2022-08-19T23:55:19.449Z,97329.13
2022-08-19T23:57:46.035Z,97327.44
